Servia, IN (46980)

3:19 AM EDT on September 02, 2015 (GMT -0400)
NW North Manchester | | Change Station
CLOSE
Current Station
Personal Weather Station
Location: North Manchester, IN
Elevation: 801 ft
Nearby Weather Stations

Elev 801 ft 41.01 °N, 85.79 °W | Updated 11 minutes ago

Clear
Clear
66.9 °F
Feels Like 66.9 °F
N
0.0
Wind Variable Wind from West

Today
High -- | Low -- °F
--% Chance of Precip.
Yesterday
High -- | Low -- °F
Precip. -- in
7:10 AM 8:14 PM
Waning Gibbous, 82% visible
Pressure 30.07 in
Visibility 10.0 miles
Clouds Clear
Dew Point 64 °F
Humidity 90%
Rainfall 0.00 in
Snow Depth Not available.
UV 0 out of 12
Pollen 10.20 out of 12
Air Quality Not available.
Flu Activity Not available.
METAR KASW 020715Z AUTO 00000KT 10SM CLR 21/19 A3007 RMK AO2
Pressure 30.07 in
Visibility 10.0 miles
Clouds Clear
Dew Point 64 °F
Humidity 90%
Rainfall 0.00 in
Snow Depth Not available.
UV 0 out of 12
Pollen 10.20 out of 12
Air Quality Not available.
Flu Activity Not available.
METAR KASW 020715Z AUTO 00000KT 10SM CLR 21/19 A3007 RMK AO2

10-Day Weather Forecast

×

Almanac

Astronomy

Sep. 02, 2015 Rise Set
Actual Time
Civil Twilight
Nautical Twilight
Astronomical Twilight
Moon
Length of Visible Light
Length of Day
Tomorrow will be .
, % of the Moon is Illuminated

Today's Extremes

State Highs State Lows

Community

WunderPhotos

Upload Photos

1,851,721 photos uploaded!

WunderBlogs® & News

Nearby

Air Quality

  Air Quality AQ Index Pollutant
Not available.

Snow Depth

Station Depth Elevation

Earthquake Activity

City Distance Mag. Time & Date
Minimum magnitude displayed is 2.5.

Coastal Water Temperatures

Place Temperature

Stations

Nearby Weather Stations

Station Location Temp. Windchill Dew Point Humidity Wind Precip. Elev Updated Type